Terminal Aerodrome Forecast
Issued by NWS St Louis, MO

Home | Current Version | Previous Version | Text Only | Print | Product List | Glossary On
Versions: 1 2 3 4 5 6 7 8 9 10 11 12 13 14 15
000
FTUS43 KLSX 231730
TAFCOU
TAF
KCOU 231730Z 2318/2418 17010G16KT P6SM SCT250
     FM240100 16006KT P6SM VCTS SCT080CB BKN150
     FM240600 16005KT P6SM VCSH BKN150=

USA.gov is the U.S. government's official web portal to all federal, state and local government web resources and services.